createdAt,value
2019-06-07T00:00:44.734Z,10.98
2019-06-07T00:03:23.882Z,13.35
2019-06-07T00:08:52.338Z,14.33
2019-06-07T00:11:25.740Z,10.35
2019-06-07T00:14:08.587Z,11.83
2019-06-07T00:16:51.274Z,14.43
2019-06-07T00:19:37.777Z,13.08
2019-06-07T00:24:54.562Z,12.95
2019-06-07T00:27:23.098Z,13.85
2019-06-07T00:29:53.872Z,13.45
2019-06-07T00:32:24.386Z,12.95
2019-06-07T00:34:53.099Z,13.23
2019-06-07T00:37:25.301Z,13.55
2019-06-07T00:40:12.728Z,12.98
2019-06-07T00:42:21.615Z,12.90
2019-06-07T00:44:48.571Z,11.57
2019-06-07T00:47:22.755Z,13.13
2019-06-07T00:49:46.057Z,11.95
2019-06-07T00:53:07.978Z,13.22
2019-06-07T00:54:43.248Z,13.10
2019-06-07T00:57:16.208Z,14.45
2019-06-07T00:59:43.486Z,15.85
2019-06-07T01:02:14.583Z,12.60
2019-06-07T01:04:40.441Z,13.70
2019-06-07T01:07:09.165Z,11.65
2019-06-07T01:09:37.608Z,14.25
2019-06-07T01:12:06.344Z,12.95
2019-06-07T01:14:36.967Z,12.85
2019-06-07T01:17:26.565Z,13.75
2019-06-07T01:19:40.953Z,13.13
2019-06-07T01:22:10.450Z,14.38
2019-06-07T01:24:38.937Z,14.00
2019-06-07T01:27:08.741Z,12.93
2019-06-07T01:29:37.170Z,13.05
2019-06-07T01:32:06.650Z,12.60
2019-06-07T01:34:35.143Z,12.70
2019-06-07T01:37:03.619Z,12.23
2019-06-07T01:39:32.610Z,14.15
2019-06-07T01:42:01.087Z,15.10
2019-06-07T01:44:31.388Z,15.18
2019-06-07T01:46:59.382Z,14.05
2019-06-07T01:49:29.751Z,13.68
2019-06-07T01:51:59.363Z,12.23
2019-06-07T01:56:57.512Z,14.18
2019-06-07T01:59:28.504Z,14.18
2019-06-07T02:01:54.733Z,14.60
2019-06-07T02:04:26.370Z,16.02
2019-06-07T02:06:54.709Z,15.68
2019-06-07T02:09:24.167Z,16.00
2019-06-07T02:11:53.620Z,14.80
2019-06-07T02:14:25.365Z,13.00
2019-06-07T02:16:50.864Z,17.45
2019-06-07T02:19:19.523Z,13.20
2019-06-07T02:21:47.899Z,15.50
2019-06-07T02:24:16.343Z,13.35
2019-06-07T02:26:44.787Z,13.68
2019-06-07T02:29:13.258Z,13.28
2019-06-07T02:31:41.818Z,13.90
2019-06-07T02:34:10.316Z,12.65
2019-06-07T02:36:41.693Z,13.10
2019-06-07T02:39:08.559Z,15.38
2019-06-07T02:41:39.891Z,14.03
2019-06-07T02:44:06.888Z,14.43
2019-06-07T02:46:46.725Z,15.80
2019-06-07T02:49:05.897Z,17.12
2019-06-07T02:51:41.077Z,14.18
2019-06-07T02:54:07.495Z,15.10
2019-06-07T02:56:54.138Z,15.20
2019-06-07T02:59:06.403Z,14.53
2019-06-07T03:01:39.397Z,13.68
2019-06-07T03:04:03.491Z,14.25
2019-06-07T03:06:40.439Z,15.18
2019-06-07T03:09:06.922Z,13.32
2019-06-07T03:11:37.161Z,15.73
2019-06-07T03:14:03.837Z,13.30
2019-06-07T03:16:43.813Z,15.78
2019-06-07T03:19:17.875Z,14.58
2019-06-07T03:21:46.383Z,14.85
2019-06-07T03:24:16.803Z,14.38
2019-06-07T03:27:32.225Z,16.07
2019-06-07T03:29:15.638Z,14.68
2019-06-07T03:31:47.549Z,15.70
2019-06-07T03:34:13.675Z,15.13
2019-06-07T03:36:43.146Z,16.85
2019-06-07T03:39:11.901Z,14.05
2019-06-07T03:41:55.429Z,14.47
2019-06-07T03:44:08.939Z,14.18
2019-06-07T03:46:41.177Z,14.68
2019-06-07T03:49:06.154Z,14.50
2019-06-07T03:51:41.025Z,14.15
2019-06-07T03:54:09.137Z,15.25
2019-06-07T03:56:40.688Z,14.90
2019-06-07T03:59:06.155Z,15.50
2019-06-07T04:01:35.571Z,15.13
2019-06-07T04:04:07.314Z,17.65
2019-06-07T04:06:42.774Z,17.48
2019-06-07T04:09:10.310Z,15.75
2019-06-07T04:11:40.965Z,18.55
2019-06-07T04:14:10.257Z,14.07
2019-06-07T04:16:44.253Z,13.30
2019-06-07T04:19:08.576Z,13.68
2019-06-07T04:21:42.875Z,14.10
2019-06-07T04:24:09.802Z,14.33
2019-06-07T04:26:43.165Z,13.60
2019-06-07T04:29:32.405Z,13.65
2019-06-07T04:31:45.032Z,13.73
2019-06-07T04:34:13.772Z,15.05
2019-06-07T04:36:59.609Z,13.40
2019-06-07T04:39:26.337Z,16.45
2019-06-07T04:42:07.107Z,13.93
2019-06-07T04:45:32.629Z,14.37
2019-06-07T04:50:18.222Z,15.58
2019-06-07T04:55:49.474Z,17.45
2019-06-07T05:00:54.116Z,16.77
2019-06-07T05:03:16.167Z,17.40
2019-06-07T05:05:45.702Z,16.93
2019-06-07T05:08:27.670Z,14.65
2019-06-07T05:10:44.685Z,14.63
2019-06-07T05:13:15.218Z,16.60
2019-06-07T05:15:43.678Z,13.57
2019-06-07T05:18:12.322Z,16.50
2019-06-07T05:20:44.290Z,14.53
2019-06-07T05:23:09.541Z,15.32
2019-06-07T05:25:42.240Z,15.98
2019-06-07T05:28:07.490Z,18.52
2019-06-07T05:31:01.993Z,14.43
2019-06-07T05:33:07.047Z,14.03
2019-06-07T05:35:36.206Z,12.70
2019-06-07T05:38:04.555Z,14.18
2019-06-07T05:40:34.956Z,13.80
2019-06-07T05:43:02.210Z,18.48
2019-06-07T05:45:32.349Z,11.18
2019-06-07T05:48:02.674Z,11.60
2019-06-07T05:50:43.671Z,13.35
2019-06-07T05:52:57.745Z,17.32
2019-06-07T05:55:26.206Z,14.93
2019-06-07T05:57:54.949Z,12.60
2019-06-07T06:00:25.263Z,18.02
2019-06-07T06:03:04.833Z,15.05
2019-06-07T06:05:33.643Z,18.07
2019-06-07T06:07:56.096Z,77.62
2019-06-07T06:10:29.813Z,38.95
2019-06-07T06:12:59.312Z,26.35
2019-06-07T06:15:42.225Z,25.85
2019-06-07T06:17:57.034Z,14.80
2019-06-07T06:20:32.486Z,15.60
2019-06-07T06:23:01.003Z,10.65
2019-06-07T06:28:49.722Z,9.08
2019-06-07T06:31:32.651Z,9.40
2019-06-07T06:34:13.445Z,11.95
2019-06-07T06:36:47.767Z,11.30
2019-06-07T06:39:13.473Z,11.33
2019-06-07T06:41:52.239Z,9.75
2019-06-07T06:44:10.448Z,11.65
2019-06-07T06:46:46.124Z,9.05
2019-06-07T06:49:07.389Z,7.72
2019-06-07T06:51:36.175Z,8.55
2019-06-07T06:54:05.163Z,8.90
2019-06-07T06:56:33.571Z,8.45
2019-06-07T07:01:30.961Z,8.18
2019-06-07T07:04:11.158Z,10.60
2019-06-07T07:06:27.921Z,9.10
2019-06-07T07:08:56.698Z,9.65
2019-06-07T07:11:26.288Z,8.88
2019-06-07T07:13:57.007Z,8.65
2019-06-07T07:16:24.296Z,9.75
2019-06-07T07:18:54.563Z,8.50
2019-06-07T07:21:21.342Z,8.40
2019-06-07T07:24:18.686Z,9.23
2019-06-07T07:26:18.427Z,10.80
2019-06-07T07:28:51.800Z,11.28
2019-06-07T07:31:16.506Z,8.95
2019-06-07T07:36:37.423Z,13.40
2019-06-07T07:38:45.594Z,12.23
2019-06-07T07:41:15.667Z,8.15
2019-06-07T07:43:45.725Z,7.95
2019-06-07T07:46:28.654Z,7.87
2019-06-07T07:48:40.417Z,10.08
2019-06-07T07:51:08.916Z,7.87
2019-06-07T07:53:48.637Z,11.53
2019-06-07T07:56:25.239Z,8.25
2019-06-07T07:58:57.328Z,7.50
2019-06-07T08:01:22.196Z,10.05
2019-06-07T08:03:51.346Z,9.55
2019-06-07T08:06:19.336Z,10.13
2019-06-07T08:08:51.918Z,9.03
2019-06-07T08:11:20.953Z,8.10
2019-06-07T08:13:50.630Z,9.98
2019-06-07T08:16:20.408Z,6.58
2019-06-07T08:18:52.728Z,7.30
2019-06-07T08:21:25.535Z,8.05
2019-06-07T08:23:55.665Z,6.65
2019-06-07T08:26:23.349Z,7.53
2019-06-07T08:32:11.516Z,6.00
2019-06-07T08:35:06.678Z,7.05
2019-06-07T08:43:58.445Z,6.60
2019-06-07T08:52:44.082Z,5.58
2019-06-07T09:01:48.967Z,6.87
2019-06-07T09:07:34.376Z,6.17
2019-06-07T09:10:14.140Z,9.25
2019-06-07T09:16:03.567Z,5.75
2019-06-07T09:21:42.647Z,7.08
2019-06-07T09:31:02.904Z,7.22
2019-06-07T09:36:44.467Z,3.87
2019-06-07T09:39:13.268Z,5.60
2019-06-07T09:41:49.356Z,7.50
2019-06-07T09:44:24.150Z,4.78
2019-06-07T09:46:39.751Z,7.08
2019-06-07T09:49:18.374Z,7.25
2019-06-07T09:51:36.699Z,7.00
2019-06-07T09:54:08.278Z,5.60
2019-06-07T09:56:43.997Z,7.17
2019-06-07T09:59:13.116Z,6.55
2019-06-07T10:01:41.402Z,6.33
2019-06-07T10:04:28.178Z,4.45
2019-06-07T10:06:39.567Z,5.35
2019-06-07T10:11:36.840Z,4.83
2019-06-07T10:14:06.741Z,4.20
2019-06-07T10:16:46.155Z,3.90
2019-06-07T10:19:03.647Z,4.20
2019-06-07T10:21:33.339Z,3.92
2019-06-07T10:24:01.809Z,3.10
2019-06-07T10:26:30.766Z,2.62
2019-06-07T10:28:59.680Z,3.65
2019-06-07T10:31:27.728Z,5.15
2019-06-07T10:33:56.223Z,3.85
2019-06-07T10:36:24.686Z,3.12
2019-06-07T10:38:53.180Z,7.30
2019-06-07T10:41:21.657Z,3.92
2019-06-07T10:43:53.899Z,5.78
2019-06-07T10:46:25.376Z,3.10
2019-06-07T10:48:53.910Z,6.42
2019-06-07T10:51:24.415Z,3.67
2019-06-07T10:53:52.886Z,2.60
2019-06-07T10:56:40.782Z,2.75
2019-06-07T10:59:11.893Z,2.77
2019-06-07T11:01:40.654Z,2.92
2019-06-07T11:04:18.262Z,2.10
2019-06-07T11:06:47.740Z,4.10
2019-06-07T11:09:20.262Z,4.25
2019-06-07T11:12:01.807Z,2.30
2019-06-07T11:14:32.335Z,2.80
2019-06-07T11:17:13.444Z,2.52
2019-06-07T11:19:42.945Z,3.37
2019-06-07T11:22:18.620Z,3.23
2019-06-07T11:24:47.796Z,4.33
2019-06-07T11:27:16.609Z,6.08
2019-06-07T11:29:55.072Z,3.10
2019-06-07T11:32:25.580Z,5.75
2019-06-07T11:34:54.089Z,3.90
2019-06-07T11:37:28.268Z,3.45
2019-06-07T11:39:56.801Z,2.80
2019-06-07T11:42:27.661Z,3.12
2019-06-07T11:47:30.694Z,3.02
2019-06-07T11:50:13.736Z,4.12
2019-06-07T11:52:46.078Z,3.98
2019-06-07T11:55:11.595Z,4.55
2019-06-07T11:57:39.777Z,2.67
2019-06-07T12:00:18.431Z,3.75
2019-06-07T12:02:45.863Z,3.25
2019-06-07T12:05:17.196Z,4.10
2019-06-07T12:07:43.080Z,2.92
2019-06-07T12:10:12.615Z,7.80
2019-06-07T12:12:42.143Z,2.77
2019-06-07T12:15:12.927Z,8.90
2019-06-07T12:20:10.806Z,5.87
2019-06-07T12:22:37.285Z,3.77
2019-06-07T12:25:06.034Z,2.98
2019-06-07T12:27:34.206Z,4.12
2019-06-07T12:30:09.485Z,3.45
2019-06-07T12:32:31.275Z,3.47
2019-06-07T12:34:59.779Z,2.40
2019-06-07T12:37:42.603Z,4.03
2019-06-07T12:39:56.730Z,3.10
2019-06-07T12:42:25.197Z,3.00
2019-06-07T12:44:53.679Z,3.95
2019-06-07T12:47:23.179Z,4.37
2019-06-07T12:49:50.641Z,3.65
2019-06-07T12:52:20.929Z,4.72
2019-06-07T12:54:47.607Z,4.78
2019-06-07T12:57:16.213Z,3.05
2019-06-07T13:00:02.884Z,3.33
2019-06-07T13:02:31.718Z,5.83
2019-06-07T13:05:04.326Z,3.27
2019-06-07T13:07:28.676Z,5.47
2019-06-07T13:09:57.165Z,3.87
2019-06-07T13:12:30.132Z,4.75
2019-06-07T13:14:58.656Z,5.35
2019-06-07T13:17:28.645Z,3.80
2019-06-07T13:19:57.637Z,3.00
2019-06-07T13:22:26.115Z,6.35
2019-06-07T13:24:54.598Z,4.10
2019-06-07T13:27:23.055Z,3.37
2019-06-07T13:29:51.595Z,7.60
2019-06-07T13:32:19.967Z,3.15
2019-06-07T13:34:48.463Z,3.58
2019-06-07T13:37:17.190Z,3.98
2019-06-07T13:39:45.881Z,3.45
2019-06-07T13:42:14.550Z,3.33
2019-06-07T13:44:43.606Z,4.47
2019-06-07T13:47:12.036Z,5.65
2019-06-07T13:49:40.470Z,4.20
2019-06-07T13:52:09.224Z,4.80
2019-06-07T13:54:37.754Z,5.35
2019-06-07T13:57:06.172Z,3.98
2019-06-07T13:59:34.640Z,6.47
2019-06-07T14:02:03.124Z,5.42
2019-06-07T14:04:31.677Z,4.58
2019-06-07T14:07:00.075Z,5.42
2019-06-07T14:09:30.601Z,5.35
2019-06-07T14:11:59.086Z,6.70
2019-06-07T14:14:29.188Z,5.58
2019-06-07T14:16:56.024Z,8.53
2019-06-07T14:19:24.590Z,3.20
2019-06-07T14:21:52.979Z,4.72
2019-06-07T14:24:22.817Z,7.25
2019-06-07T14:26:56.484Z,3.83
2019-06-07T14:29:25.554Z,4.35
2019-06-07T14:31:53.431Z,4.03
2019-06-07T14:34:22.316Z,5.55
2019-06-07T14:36:50.373Z,5.70
2019-06-07T14:39:18.877Z,3.20
2019-06-07T14:41:47.347Z,13.05
2019-06-07T14:44:15.810Z,3.92
2019-06-07T14:46:44.381Z,4.90
2019-06-07T14:49:12.767Z,4.00
2019-06-07T14:51:41.260Z,3.75
2019-06-07T14:54:09.741Z,5.33
2019-06-07T14:56:38.239Z,4.80
2019-06-07T14:59:06.698Z,5.47
2019-06-07T15:01:36.218Z,5.58
2019-06-07T15:04:04.822Z,4.47
2019-06-07T15:06:34.864Z,3.17
2019-06-07T15:09:01.748Z,3.33
2019-06-07T15:11:31.165Z,2.90
2019-06-07T15:13:58.718Z,6.17
2019-06-07T15:16:27.469Z,3.27
2019-06-07T15:18:55.991Z,3.27
2019-06-07T15:21:24.554Z,4.70
2019-06-07T15:23:52.945Z,4.72
2019-06-07T15:26:21.460Z,2.67
2019-06-07T15:28:49.989Z,5.90
2019-06-07T15:31:18.468Z,7.03
2019-06-07T15:33:50.162Z,4.60
2019-06-07T15:36:18.602Z,4.22
2019-06-07T15:38:48.814Z,9.00
2019-06-07T15:41:17.304Z,5.00
2019-06-07T15:43:46.702Z,3.40
2019-06-07T15:46:15.217Z,7.47
2019-06-07T15:48:45.397Z,4.15
2019-06-07T15:51:14.615Z,9.03
2019-06-07T15:53:44.747Z,4.62
2019-06-07T15:56:11.610Z,5.10
2019-06-07T15:58:41.338Z,3.15
2019-06-07T16:01:08.729Z,2.60
2019-06-07T16:03:37.948Z,4.10
2019-06-07T16:06:05.612Z,4.75
2019-06-07T16:08:34.361Z,4.10
2019-06-07T16:13:32.501Z,3.80
2019-06-07T16:16:00.136Z,7.62
2019-06-07T16:18:28.552Z,4.83
2019-06-07T16:20:57.050Z,6.33
2019-06-07T16:23:25.476Z,4.15
2019-06-07T16:25:54.923Z,9.75
2019-06-07T16:28:23.442Z,7.45
2019-06-07T16:30:51.926Z,8.60
2019-06-07T16:33:20.397Z,4.50
2019-06-07T16:35:48.864Z,4.70
2019-06-07T16:38:17.431Z,5.33
2019-06-07T16:40:45.817Z,3.85
2019-06-07T16:43:18.465Z,3.50
2019-06-07T16:45:45.643Z,7.12
2019-06-07T16:48:14.847Z,5.70
2019-06-07T16:50:45.132Z,4.03
2019-06-07T16:53:12.839Z,3.08
2019-06-07T16:55:42.640Z,7.17
2019-06-07T16:58:09.719Z,4.92
2019-06-07T17:00:38.683Z,4.30
2019-06-07T17:03:06.682Z,5.95
2019-06-07T17:05:37.684Z,4.25
2019-06-07T17:08:08.027Z,25.73
2019-06-07T17:10:38.151Z,23.67
2019-06-07T17:13:06.036Z,10.13
2019-06-07T17:15:35.536Z,17.77
2019-06-07T17:18:04.023Z,13.15
2019-06-07T17:20:32.490Z,31.05
2019-06-07T17:23:01.055Z,9.88
2019-06-07T17:25:37.536Z,4.97
2019-06-07T17:28:06.098Z,4.95
2019-06-07T17:30:34.562Z,6.42
2019-06-07T17:33:03.080Z,7.00
2019-06-07T17:35:31.663Z,5.90
2019-06-07T17:38:01.749Z,4.62
2019-06-07T17:40:30.225Z,6.20
2019-06-07T17:42:58.720Z,5.37
2019-06-07T17:45:27.185Z,4.15
2019-06-07T17:47:55.943Z,5.47
2019-06-07T17:50:24.455Z,9.60
2019-06-07T17:52:53.863Z,6.28
2019-06-07T17:55:22.430Z,6.03
2019-06-07T17:57:50.945Z,5.55
2019-06-07T18:00:34.832Z,4.37
2019-06-07T18:02:48.781Z,5.00
2019-06-07T18:05:17.100Z,6.95
2019-06-07T18:07:47.578Z,5.10
2019-06-07T18:10:14.776Z,4.97
2019-06-07T18:12:43.978Z,6.72
2019-06-07T18:15:11.735Z,4.67
2019-06-07T18:17:40.226Z,6.87
2019-06-07T18:20:08.730Z,6.55
2019-06-07T18:22:37.285Z,9.95
2019-06-07T18:25:05.694Z,3.02
2019-06-07T18:27:34.139Z,3.12
2019-06-07T18:30:11.231Z,5.87
2019-06-07T18:32:31.087Z,5.45
2019-06-07T18:35:00.447Z,7.33
2019-06-07T18:37:28.087Z,5.55
2019-06-07T18:39:56.522Z,6.53
2019-06-07T18:42:25.004Z,5.33
2019-06-07T18:44:53.481Z,4.10
2019-06-07T18:47:22.063Z,4.03
2019-06-07T18:49:51.523Z,3.65
2019-06-07T18:52:26.008Z,5.97
2019-06-07T18:54:55.088Z,5.22
2019-06-07T18:57:23.162Z,7.87
2019-06-07T18:59:52.356Z,8.20
2019-06-07T19:02:20.534Z,5.87
2019-06-07T19:04:50.535Z,5.60
2019-06-07T19:07:17.492Z,5.33
2019-06-07T19:09:45.976Z,3.20
2019-06-07T19:12:14.460Z,5.12
2019-06-07T19:14:42.943Z,8.43
2019-06-07T19:17:11.437Z,4.95
2019-06-07T19:19:39.916Z,5.03
2019-06-07T19:22:08.363Z,6.92
2019-06-07T19:24:36.935Z,8.85
2019-06-07T19:27:05.349Z,4.72
2019-06-07T19:29:33.882Z,6.60
2019-06-07T19:32:02.768Z,7.17
2019-06-07T19:34:32.188Z,6.25
2019-06-07T19:37:02.642Z,8.47
2019-06-07T19:39:31.347Z,4.20
2019-06-07T19:42:00.171Z,7.87
2019-06-07T19:44:28.600Z,6.10
2019-06-07T19:46:58.438Z,8.13
2019-06-07T19:49:25.526Z,4.83
2019-06-07T19:51:54.952Z,9.95
2019-06-07T19:54:26.889Z,7.85
2019-06-07T19:56:55.523Z,10.32
2019-06-07T19:59:23.865Z,8.53
2019-06-07T20:01:53.603Z,13.28
2019-06-07T20:04:21.034Z,13.83
2019-06-07T20:06:49.502Z,12.40
2019-06-07T20:09:18.002Z,6.22
2019-06-07T20:11:46.747Z,17.55
2019-06-07T20:14:15.454Z,11.43
2019-06-07T20:16:43.940Z,5.87
2019-06-07T20:19:12.514Z,5.17
2019-06-07T20:21:41.205Z,5.40
2019-06-07T20:24:24.737Z,13.10
2019-06-07T20:26:38.170Z,5.10
2019-06-07T20:29:14.541Z,7.08
2019-06-07T20:31:35.397Z,7.62
2019-06-07T20:34:05.709Z,5.03
2019-06-07T20:36:32.363Z,9.13
2019-06-07T20:39:02.137Z,6.97
2019-06-07T20:41:29.942Z,4.53
2019-06-07T20:43:59.702Z,4.95
2019-06-07T20:46:27.093Z,12.10
2019-06-07T20:48:58.021Z,3.58
2019-06-07T20:51:39.458Z,4.45
2019-06-07T20:54:09.119Z,2.42
2019-06-07T20:56:38.455Z,3.33
2019-06-07T20:59:06.951Z,6.87
2019-06-07T21:01:35.420Z,4.33
2019-06-07T21:04:05.073Z,7.53
2019-06-07T21:06:32.370Z,3.92
2019-06-07T21:09:01.526Z,3.55
2019-06-07T21:11:29.710Z,5.10
2019-06-07T21:13:58.323Z,4.60
2019-06-07T21:16:26.819Z,6.08
2019-06-07T21:18:55.302Z,7.53
2019-06-07T21:21:23.784Z,3.33
2019-06-07T21:23:52.994Z,3.42
2019-06-07T21:26:21.460Z,7.22
2019-06-07T21:28:50.027Z,4.00
2019-06-07T21:31:18.391Z,4.37
2019-06-07T21:33:46.881Z,1.92
2019-06-07T21:36:15.345Z,1.60
2019-06-07T21:38:43.827Z,4.33
2019-06-07T21:41:12.754Z,2.00
2019-06-07T21:43:41.186Z,2.98
2019-06-07T21:46:17.268Z,3.27
2019-06-07T21:48:38.146Z,2.50
2019-06-07T21:51:06.647Z,2.27
2019-06-07T21:53:35.123Z,2.92
2019-06-07T21:56:04.819Z,2.65
2019-06-07T21:58:32.279Z,2.60
2019-06-07T22:01:20.254Z,1.37
2019-06-07T22:03:49.730Z,1.80
2019-06-07T22:06:18.211Z,2.72
2019-06-07T22:08:46.681Z,2.83
2019-06-07T22:11:17.407Z,3.80
2019-06-07T22:13:45.911Z,1.73
2019-06-07T22:16:26.286Z,1.75
2019-06-07T22:18:43.257Z,2.33
2019-06-07T22:21:12.682Z,3.30
2019-06-07T22:23:43.578Z,3.25
2019-06-07T22:26:09.053Z,3.42
2019-06-07T22:28:37.915Z,3.37
2019-06-07T22:31:06.472Z,3.58
2019-06-07T22:33:34.857Z,5.65
2019-06-07T22:36:03.522Z,4.53
2019-06-07T22:38:32.023Z,2.17
2019-06-07T22:41:00.531Z,1.42
2019-06-07T22:43:28.995Z,2.67
2019-06-07T22:45:57.511Z,1.72
2019-06-07T22:48:25.952Z,2.00
2019-06-07T22:50:54.553Z,1.35
2019-06-07T22:53:23.736Z,2.55
2019-06-07T22:55:57.214Z,2.12
2019-06-07T22:58:26.386Z,1.42
2019-06-07T23:00:54.843Z,2.17
2019-06-07T23:03:23.554Z,4.33
2019-06-07T23:05:52.009Z,2.85
2019-06-07T23:08:20.466Z,2.17
2019-06-07T23:10:49.314Z,2.83
2019-06-07T23:13:19.563Z,2.83
2019-06-07T23:15:46.755Z,2.50
2019-06-07T23:18:15.527Z,3.70
2019-06-07T23:20:43.733Z,2.60
2019-06-07T23:23:12.319Z,3.58
2019-06-07T23:25:40.654Z,3.90
2019-06-07T23:28:10.200Z,4.73
2019-06-07T23:30:37.663Z,3.25
2019-06-07T23:33:06.105Z,2.33
2019-06-07T23:35:34.618Z,2.08
2019-06-07T23:38:03.094Z,2.00
2019-06-07T23:40:31.582Z,5.35
2019-06-07T23:43:00.045Z,2.05
2019-06-07T23:45:28.560Z,2.42
2019-06-07T23:47:57.241Z,1.30
2019-06-07T23:50:25.710Z,2.58
2019-06-07T23:52:54.172Z,5.12
2019-06-07T23:55:22.665Z,3.10
2019-06-07T23:57:56.504Z,1.22
